createdAt,value
2023-01-28T00:00:34.155Z,72.95
2023-01-28T00:02:37.150Z,72.14
2023-01-28T00:04:40.171Z,73.04
2023-01-28T00:06:42.886Z,72.79
2023-01-28T00:08:47.214Z,72.76
2023-01-28T00:10:49.771Z,72.63
2023-01-28T00:12:52.290Z,72.34
2023-01-28T00:14:54.848Z,72.67
2023-01-28T00:16:57.385Z,72.98
2023-01-28T00:18:59.979Z,72.57
2023-01-28T00:21:04.581Z,72.71
2023-01-28T00:23:07.334Z,72.59
2023-01-28T00:25:11.334Z,72.52
2023-01-28T00:27:13.891Z,72.98
2023-01-28T00:29:16.423Z,72.40
2023-01-28T00:31:22.112Z,72.54
2023-01-28T00:33:25.139Z,72.58
2023-01-28T00:35:28.003Z,72.43
2023-01-28T00:37:30.554Z,72.46
2023-01-28T00:39:33.332Z,72.63
2023-01-28T00:41:37.437Z,72.38
2023-01-28T00:43:40.820Z,73.08
2023-01-28T00:45:43.730Z,72.63
2023-01-28T00:47:46.247Z,73.11
2023-01-28T00:49:48.802Z,72.94
2023-01-28T00:51:51.402Z,72.80
2023-01-28T00:53:54.020Z,72.53
2023-01-28T00:55:56.643Z,72.54
2023-01-28T00:58:00.523Z,72.84
2023-01-28T01:00:03.355Z,72.54
2023-01-28T01:02:13.089Z,72.11
2023-01-28T01:04:26.946Z,72.67
2023-01-28T01:06:31.354Z,72.01
2023-01-28T01:08:35.971Z,71.95
2023-01-28T01:10:39.137Z,72.47
2023-01-28T01:12:42.195Z,72.24
2023-01-28T01:14:46.074Z,72.17
2023-01-28T01:16:48.686Z,72.28
2023-01-28T01:18:52.827Z,72.52
2023-01-28T01:20:58.919Z,72.55
2023-01-28T01:23:01.493Z,72.23
2023-01-28T01:25:05.101Z,72.13
2023-01-28T01:27:07.655Z,72.33
2023-01-28T01:29:10.758Z,72.19
2023-01-28T01:31:15.977Z,71.87
2023-01-28T01:33:18.676Z,71.74
2023-01-28T01:35:21.260Z,71.92
2023-01-28T01:37:23.797Z,72.15
2023-01-28T01:39:26.476Z,72.19
2023-01-28T01:41:31.351Z,71.41
2023-01-28T01:43:48.462Z,71.55
2023-01-28T01:45:57.081Z,72.00
2023-01-28T01:48:04.852Z,71.50
2023-01-28T01:50:15.092Z,72.22
2023-01-28T01:52:24.239Z,72.09
2023-01-28T01:54:29.531Z,71.65
2023-01-28T01:56:38.727Z,71.88
2023-01-28T01:58:45.094Z,71.74
2023-01-28T02:00:47.671Z,71.76
2023-01-28T02:02:52.333Z,72.07
2023-01-28T02:04:56.291Z,71.33
2023-01-28T02:07:01.490Z,72.17
2023-01-28T02:09:04.447Z,71.58
2023-01-28T02:11:09.558Z,71.79
2023-01-28T02:13:12.330Z,71.74
2023-01-28T02:15:18.320Z,71.33
2023-01-28T02:17:21.809Z,70.33
2023-01-28T02:19:28.350Z,71.15
2023-01-28T02:22:06.878Z,71.78
2023-01-28T02:24:31.173Z,70.81
2023-01-28T02:26:51.208Z,71.37
2023-01-28T02:28:59.567Z,71.20
2023-01-28T02:31:09.841Z,71.48
2023-01-28T02:33:18.777Z,71.10
2023-01-28T02:35:30.363Z,71.49
2023-01-28T02:37:39.193Z,71.47
2023-01-28T02:39:48.896Z,71.05
2023-01-28T02:41:54.802Z,71.54
2023-01-28T02:43:58.746Z,71.87
2023-01-28T02:46:27.249Z,71.95
2023-01-28T02:48:29.879Z,71.96
2023-01-28T02:50:44.461Z,72.05
2023-01-28T02:53:20.619Z,72.27
2023-01-28T02:55:33.608Z,72.17
2023-01-28T02:57:44.197Z,71.71
2023-01-28T02:59:52.593Z,72.09
2023-01-28T03:02:01.584Z,72.34
2023-01-28T03:04:09.154Z,72.28
2023-01-28T03:06:15.861Z,72.03
2023-01-28T03:08:36.410Z,72.47
2023-01-28T03:10:39.006Z,72.58
2023-01-28T03:13:02.544Z,72.83
2023-01-28T03:15:27.545Z,73.03
2023-01-28T03:17:54.900Z,73.22
2023-01-28T03:20:15.442Z,72.83
2023-01-28T03:22:35.698Z,72.77
2023-01-28T03:25:02.496Z,72.99
2023-01-28T03:27:27.216Z,72.67
2023-01-28T03:29:50.589Z,73.06
2023-01-28T03:32:13.549Z,72.64
2023-01-28T03:34:33.883Z,73.04
2023-01-28T03:36:50.339Z,72.44
2023-01-28T03:38:53.150Z,72.99
2023-01-28T03:40:58.196Z,72.65
2023-01-28T03:43:00.829Z,72.92
2023-01-28T03:45:04.777Z,73.28
2023-01-28T03:47:09.035Z,72.49
2023-01-28T03:49:11.591Z,72.49
2023-01-28T03:51:14.181Z,73.24
2023-01-28T03:53:17.219Z,72.53
2023-01-28T03:55:19.825Z,73.07
2023-01-28T03:57:25.067Z,72.98
2023-01-28T03:59:27.657Z,73.32
2023-01-28T04:01:30.344Z,72.47
2023-01-28T04:03:34.243Z,72.89
2023-01-28T04:05:36.767Z,72.69
2023-01-28T04:07:39.781Z,73.64
2023-01-28T04:09:43.177Z,73.18
2023-01-28T04:11:46.261Z,73.12
2023-01-28T04:13:52.072Z,72.90
2023-01-28T04:15:54.657Z,72.61
2023-01-28T04:17:57.227Z,72.70
2023-01-28T04:20:03.421Z,73.15
2023-01-28T04:22:07.772Z,72.98
2023-01-28T04:24:10.699Z,73.09
2023-01-28T04:26:13.279Z,73.25
2023-01-28T04:28:15.815Z,73.23
2023-01-28T04:30:18.927Z,73.52
2023-01-28T04:32:21.483Z,72.76
2023-01-28T04:34:24.086Z,72.89
2023-01-28T04:36:28.241Z,72.62
2023-01-28T04:38:30.790Z,73.30
2023-01-28T04:40:33.393Z,72.92
2023-01-28T04:42:36.079Z,72.97
2023-01-28T04:44:38.640Z,73.41
2023-01-28T04:46:43.016Z,73.12
2023-01-28T04:48:45.703Z,73.41
2023-01-28T04:50:48.280Z,73.76
2023-01-28T04:52:52.175Z,73.20
2023-01-28T04:54:54.718Z,73.08
2023-01-28T04:56:57.291Z,73.38
2023-01-28T04:58:59.870Z,73.46
2023-01-28T05:01:02.543Z,73.70
2023-01-28T05:03:05.127Z,73.24
2023-01-28T05:05:08.924Z,73.60
2023-01-28T05:07:11.901Z,73.42
2023-01-28T05:09:15.838Z,73.57
2023-01-28T05:11:18.437Z,73.28
2023-01-28T05:13:20.957Z,73.36
2023-01-28T05:15:23.883Z,73.48
2023-01-28T05:17:26.511Z,73.44
2023-01-28T05:19:29.070Z,74.13
2023-01-28T05:21:31.645Z,73.53
2023-01-28T05:23:34.283Z,73.99
2023-01-28T05:25:38.177Z,73.56
2023-01-28T05:27:40.797Z,72.97
2023-01-28T05:29:43.352Z,73.77
2023-01-28T05:31:45.931Z,73.34
2023-01-28T05:33:48.505Z,73.38
2023-01-28T05:35:51.061Z,73.73
2023-01-28T05:37:53.673Z,73.78
2023-01-28T05:39:56.193Z,73.26
2023-01-28T05:42:00.146Z,73.08
2023-01-28T05:44:02.982Z,73.56
2023-01-28T05:46:05.951Z,73.33
2023-01-28T05:48:08.954Z,73.52
2023-01-28T05:50:15.036Z,73.86
2023-01-28T05:52:17.909Z,74.06
2023-01-28T05:54:20.608Z,74.08
2023-01-28T05:56:23.223Z,73.93
2023-01-28T05:58:30.809Z,73.63
2023-01-28T06:00:33.465Z,73.75
2023-01-28T06:02:36.079Z,74.11
2023-01-28T06:04:39.105Z,74.16
2023-01-28T06:06:41.684Z,73.49
2023-01-28T06:08:44.240Z,73.80
2023-01-28T06:10:47.271Z,74.20
2023-01-28T06:12:49.924Z,73.85
2023-01-28T06:14:53.845Z,74.07
2023-01-28T06:16:56.403Z,74.00
2023-01-28T06:18:59.434Z,74.01
2023-01-28T06:21:02.000Z,73.65
2023-01-28T06:23:04.562Z,74.06
2023-01-28T06:25:08.387Z,74.26
2023-01-28T06:27:12.119Z,73.80
2023-01-28T06:29:14.670Z,73.36
2023-01-28T06:31:19.078Z,73.82
2023-01-28T06:33:22.627Z,74.22
2023-01-28T06:35:25.320Z,74.12
2023-01-28T06:37:27.965Z,74.28
2023-01-28T06:39:31.866Z,74.38
2023-01-28T06:41:34.446Z,74.31
2023-01-28T06:43:37.062Z,73.74
2023-01-28T06:45:39.713Z,73.50
2023-01-28T06:48:01.302Z,73.59
2023-01-28T06:50:03.894Z,73.63
2023-01-28T06:52:06.546Z,74.14
2023-01-28T06:54:09.552Z,74.11
2023-01-28T06:56:12.212Z,73.40
2023-01-28T06:58:15.088Z,73.82
2023-01-28T07:00:19.516Z,73.29
2023-01-28T07:02:22.076Z,74.31
2023-01-28T07:04:26.095Z,74.45
2023-01-28T07:06:28.677Z,74.71
2023-01-28T07:08:31.324Z,74.02
2023-01-28T07:10:34.157Z,74.08
2023-01-28T07:12:36.720Z,73.98
2023-01-28T07:14:39.309Z,74.49
2023-01-28T07:16:41.879Z,74.29
2023-01-28T07:18:44.469Z,74.54
2023-01-28T07:20:48.366Z,74.42
2023-01-28T07:22:51.073Z,74.06
2023-01-28T07:24:53.602Z,74.48
2023-01-28T07:26:56.202Z,74.16
2023-01-28T07:28:58.765Z,74.27
2023-01-28T07:31:01.419Z,74.07
2023-01-28T07:33:04.100Z,74.36
2023-01-28T07:35:07.837Z,74.18
2023-01-28T07:37:11.918Z,74.05
2023-01-28T07:39:14.477Z,74.01
2023-01-28T07:41:17.059Z,74.32
2023-01-28T07:43:19.610Z,74.66
2023-01-28T07:45:22.245Z,74.80
2023-01-28T07:47:24.879Z,74.62
2023-01-28T07:49:27.474Z,74.30
2023-01-28T07:51:29.988Z,74.48
2023-01-28T07:53:33.880Z,74.76
2023-01-28T07:55:36.740Z,74.94
2023-01-28T07:57:39.304Z,74.40
2023-01-28T07:59:41.873Z,74.07
2023-01-28T08:01:44.578Z,74.55
2023-01-28T08:03:47.189Z,74.94
2023-01-28T08:05:52.937Z,74.76
2023-01-28T08:07:55.555Z,74.64
2023-01-28T08:09:59.448Z,74.43
2023-01-28T08:12:03.616Z,74.82
2023-01-28T08:14:06.264Z,74.61
2023-01-28T08:16:09.135Z,74.40
2023-01-28T08:18:13.648Z,74.40
2023-01-28T08:20:17.047Z,73.80
2023-01-28T08:22:19.764Z,74.36
2023-01-28T08:24:22.358Z,74.32
2023-01-28T08:26:26.322Z,73.72
2023-01-28T08:28:29.248Z,73.46
2023-01-28T08:30:32.223Z,73.88
2023-01-28T08:32:34.802Z,73.41
2023-01-28T08:34:37.622Z,73.62
2023-01-28T08:36:40.180Z,73.82
2023-01-28T08:38:43.407Z,73.37
2023-01-28T08:40:46.028Z,73.12
2023-01-28T08:42:50.470Z,73.89
2023-01-28T08:44:52.997Z,73.72
2023-01-28T08:46:55.506Z,73.71
2023-01-28T08:48:58.085Z,73.29
2023-01-28T08:51:00.916Z,73.45
2023-01-28T08:53:05.797Z,73.40
2023-01-28T08:55:09.563Z,73.09
2023-01-28T08:57:12.166Z,73.59
2023-01-28T08:59:16.156Z,73.64
2023-01-28T09:01:18.752Z,73.82
2023-01-28T09:03:21.353Z,73.90
2023-01-28T09:05:24.138Z,73.34
2023-01-28T09:07:26.754Z,73.86
2023-01-28T09:09:31.196Z,73.83
2023-01-28T09:11:33.763Z,73.63
2023-01-28T09:13:36.336Z,73.54
2023-01-28T09:15:40.476Z,73.18
2023-01-28T09:17:43.058Z,73.60
2023-01-28T09:19:45.608Z,72.81
2023-01-28T09:21:48.179Z,72.75
2023-01-28T09:23:50.755Z,72.57
2023-01-28T09:26:01.071Z,72.96
2023-01-28T09:28:04.123Z,72.92
2023-01-28T09:30:07.581Z,73.40
2023-01-28T09:32:11.458Z,73.05
2023-01-28T09:34:14.182Z,72.56
2023-01-28T09:36:16.708Z,73.10
2023-01-28T09:38:19.246Z,73.29
2023-01-28T09:40:31.426Z,72.74
2023-01-28T09:42:47.803Z,73.38
2023-01-28T09:45:02.368Z,72.29
2023-01-28T09:47:10.517Z,72.66
2023-01-28T09:49:22.132Z,73.21
2023-01-28T09:51:33.429Z,72.73
2023-01-28T09:53:40.575Z,72.85
2023-01-28T09:55:47.044Z,72.99
2023-01-28T09:57:53.179Z,72.41
2023-01-28T09:59:55.797Z,73.20
2023-01-28T10:02:05.604Z,72.61
2023-01-28T10:04:23.252Z,72.20
2023-01-28T10:06:35.222Z,72.70
2023-01-28T10:08:57.694Z,72.22
2023-01-28T10:11:12.102Z,72.55
2023-01-28T10:13:37.821Z,73.09
2023-01-28T10:15:56.002Z,72.55
2023-01-28T10:18:16.622Z,72.62
2023-01-28T10:20:28.866Z,72.09
2023-01-28T10:22:33.430Z,71.76
2023-01-28T10:24:37.641Z,71.64
2023-01-28T10:26:42.606Z,71.61
2023-01-28T10:28:54.622Z,71.70
2023-01-28T10:30:57.695Z,71.61
2023-01-28T10:33:05.334Z,71.45
2023-01-28T10:35:08.455Z,71.33
2023-01-28T10:37:14.507Z,70.99
2023-01-28T10:39:19.171Z,70.38
2023-01-28T10:41:25.762Z,70.32
2023-01-28T10:43:32.298Z,70.58
2023-01-28T10:45:41.486Z,70.07
2023-01-28T10:47:48.216Z,69.49
2023-01-28T10:49:56.126Z,70.25
2023-01-28T10:51:58.921Z,69.63
2023-01-28T10:54:03.103Z,68.57
2023-01-28T10:56:08.758Z,69.01
2023-01-28T10:58:18.403Z,69.18
2023-01-28T11:00:27.228Z,69.19
2023-01-28T11:02:33.169Z,68.95
2023-01-28T11:04:37.142Z,68.67
2023-01-28T11:06:40.735Z,68.93
2023-01-28T11:08:45.405Z,68.85
2023-01-28T11:10:50.217Z,68.30
2023-01-28T11:12:56.835Z,67.68
2023-01-28T11:15:01.264Z,67.90
2023-01-28T11:17:04.054Z,67.08
2023-01-28T11:19:07.390Z,67.07
2023-01-28T11:21:19.453Z,67.55
2023-01-28T11:23:25.769Z,66.93
2023-01-28T11:25:32.298Z,66.97
2023-01-28T11:27:36.564Z,66.88
2023-01-28T11:29:42.029Z,67.24
2023-01-28T11:31:45.503Z,67.00
2023-01-28T11:33:51.954Z,66.73
2023-01-28T11:35:55.912Z,66.32
2023-01-28T11:37:59.536Z,66.07
2023-01-28T11:40:04.195Z,66.94
2023-01-28T11:42:16.931Z,66.61
2023-01-28T11:44:24.372Z,66.77
2023-01-28T11:46:44.460Z,66.93
2023-01-28T11:48:54.927Z,67.36
2023-01-28T11:51:02.232Z,67.40
2023-01-28T11:53:36.875Z,67.15
2023-01-28T11:55:48.685Z,66.91
2023-01-28T11:57:58.286Z,66.95
2023-01-28T12:00:19.128Z,67.59
2023-01-28T12:02:38.802Z,67.35
2023-01-28T12:04:59.217Z,66.57
2023-01-28T12:07:20.632Z,66.56
2023-01-28T12:09:35.692Z,67.07
2023-01-28T12:12:08.361Z,66.75
2023-01-28T12:14:21.525Z,66.89
2023-01-28T12:16:41.569Z,67.19
2023-01-28T12:19:10.405Z,67.45
2023-01-28T12:21:24.250Z,66.52
2023-01-28T12:23:44.547Z,66.76
2023-01-28T12:26:02.163Z,66.83
2023-01-28T12:28:15.111Z,66.76
2023-01-28T12:30:30.225Z,66.75
2023-01-28T12:32:50.188Z,66.19
2023-01-28T12:35:18.742Z,66.62
2023-01-28T12:37:31.618Z,66.64
2023-01-28T12:39:48.028Z,66.57
2023-01-28T12:41:56.899Z,66.57
2023-01-28T12:44:03.488Z,66.44
2023-01-28T12:46:11.706Z,66.54
2023-01-28T12:48:19.054Z,66.77
2023-01-28T12:50:26.128Z,66.56
2023-01-28T12:52:34.100Z,66.81
2023-01-28T12:54:40.473Z,67.05
2023-01-28T12:56:47.842Z,67.50
2023-01-28T12:58:58.089Z,67.51
2023-01-28T13:01:08.356Z,66.84
2023-01-28T13:03:18.682Z,67.54
2023-01-28T13:05:28.208Z,67.33
2023-01-28T13:07:36.316Z,67.02
2023-01-28T13:09:44.123Z,67.33
2023-01-28T13:11:49.297Z,67.34
2023-01-28T13:13:52.509Z,67.92
2023-01-28T13:15:55.157Z,68.03
2023-01-28T13:18:00.271Z,68.15
2023-01-28T13:20:16.211Z,68.14
2023-01-28T13:22:30.145Z,67.98
2023-01-28T13:24:33.823Z,67.57
2023-01-28T13:26:44.324Z,68.01
2023-01-28T13:28:48.354Z,68.03
2023-01-28T13:30:51.015Z,68.05
2023-01-28T13:32:59.816Z,68.49
2023-01-28T13:35:06.969Z,68.79
2023-01-28T13:37:23.062Z,68.75
2023-01-28T13:39:28.092Z,68.36
2023-01-28T13:41:41.884Z,67.71
2023-01-28T13:43:44.500Z,68.25
2023-01-28T13:45:57.727Z,67.91
2023-01-28T13:48:15.416Z,67.63
2023-01-28T13:50:21.627Z,67.34
2023-01-28T13:52:28.520Z,66.66
2023-01-28T13:54:36.269Z,67.29
2023-01-28T13:56:43.498Z,67.41
2023-01-28T13:59:33.412Z,67.54
2023-01-28T14:02:04.172Z,66.89
2023-01-28T14:04:35.392Z,67.09
2023-01-28T14:06:59.972Z,66.57
2023-01-28T14:09:30.247Z,66.54
2023-01-28T14:11:57.739Z,66.64
2023-01-28T14:14:22.552Z,66.55
2023-01-28T14:16:35.946Z,67.00
2023-01-28T14:18:42.873Z,67.05
2023-01-28T14:20:46.844Z,67.15
2023-01-28T14:22:51.168Z,67.73
2023-01-28T14:24:54.769Z,67.27
2023-01-28T14:27:04.673Z,68.01
2023-01-28T14:29:19.031Z,68.00
2023-01-28T14:31:27.770Z,68.07
2023-01-28T14:33:30.510Z,68.49
2023-01-28T14:35:35.983Z,68.41
2023-01-28T14:37:39.386Z,68.36
2023-01-28T14:39:46.632Z,68.45
2023-01-28T14:41:51.838Z,68.14
2023-01-28T14:43:56.855Z,68.87
2023-01-28T14:46:13.152Z,69.12
2023-01-28T14:48:25.327Z,69.12
2023-01-28T14:50:34.985Z,68.93
2023-01-28T14:52:55.340Z,69.09
2023-01-28T14:55:13.309Z,69.07
2023-01-28T14:57:28.851Z,69.04
2023-01-28T14:59:40.582Z,69.56
2023-01-28T15:01:46.018Z,68.91
2023-01-28T15:03:48.670Z,69.07
2023-01-28T15:05:51.279Z,68.96
2023-01-28T15:07:54.521Z,69.37
2023-01-28T15:10:05.143Z,69.17
2023-01-28T15:12:09.094Z,69.02
2023-01-28T15:14:17.484Z,69.29
2023-01-28T15:16:23.770Z,69.50
2023-01-28T15:18:31.866Z,69.17
2023-01-28T15:20:34.729Z,69.60
2023-01-28T15:22:38.428Z,70.24
2023-01-28T15:24:44.280Z,70.08
2023-01-28T15:26:48.561Z,70.33
2023-01-28T15:28:51.944Z,70.67
2023-01-28T15:30:55.274Z,70.84
2023-01-28T15:33:01.261Z,70.79
2023-01-28T15:35:14.086Z,71.59
2023-01-28T15:37:17.656Z,71.50
2023-01-28T15:39:22.177Z,71.48
2023-01-28T15:41:29.332Z,71.66
2023-01-28T15:43:34.892Z,71.78
2023-01-28T15:45:37.654Z,71.31
2023-01-28T15:47:40.348Z,70.90
2023-01-28T15:49:47.960Z,71.47
2023-01-28T15:51:52.063Z,71.33
2023-01-28T15:53:59.438Z,71.75
2023-01-28T15:56:06.608Z,71.00
2023-01-28T15:58:21.174Z,71.29
2023-01-28T16:00:26.070Z,71.76
2023-01-28T16:02:29.199Z,71.66
2023-01-28T16:04:31.754Z,71.85
2023-01-28T16:06:38.695Z,71.57
2023-01-28T16:08:46.114Z,71.34
2023-01-28T16:10:53.980Z,71.95
2023-01-28T16:13:04.867Z,71.77
2023-01-28T16:15:08.522Z,71.50
2023-01-28T16:17:16.933Z,71.26
2023-01-28T16:19:29.827Z,71.34
2023-01-28T16:21:36.776Z,71.54
2023-01-28T16:23:41.328Z,70.94
2023-01-28T16:25:43.928Z,71.32
2023-01-28T16:27:46.494Z,71.46
2023-01-28T16:29:49.211Z,71.09
2023-01-28T16:31:51.864Z,71.25
2023-01-28T16:33:54.464Z,71.13
2023-01-28T16:36:07.928Z,71.30
2023-01-28T16:38:16.694Z,70.80
2023-01-28T16:40:22.641Z,70.76
2023-01-28T16:42:26.049Z,70.77
2023-01-28T16:44:28.649Z,71.23
2023-01-28T16:46:31.229Z,71.26
2023-01-28T16:48:33.784Z,71.51
2023-01-28T16:50:39.760Z,71.10
2023-01-28T16:52:43.833Z,71.15
2023-01-28T16:54:46.530Z,70.66
2023-01-28T16:56:50.540Z,70.72
2023-01-28T16:58:53.141Z,70.64
2023-01-28T17:00:56.210Z,70.34
2023-01-28T17:02:58.838Z,70.56
2023-01-28T17:05:01.793Z,70.46
2023-01-28T17:07:04.827Z,70.39
2023-01-28T17:09:07.562Z,70.36
2023-01-28T17:11:10.169Z,70.54
2023-01-28T17:13:14.064Z,70.38
2023-01-28T17:15:17.429Z,70.23
2023-01-28T17:17:20.320Z,70.21
2023-01-28T17:19:23.393Z,69.98
2023-01-28T17:21:25.985Z,70.36
2023-01-28T17:23:28.553Z,70.34
2023-01-28T17:25:31.104Z,70.46
2023-01-28T17:27:33.645Z,70.41
2023-01-28T17:29:37.643Z,70.22
2023-01-28T17:31:40.307Z,70.51
2023-01-28T17:33:43.190Z,70.00
2023-01-28T17:35:47.403Z,69.86
2023-01-28T17:37:53.391Z,69.92
2023-01-28T17:39:55.983Z,70.32
2023-01-28T17:41:58.566Z,70.57
2023-01-28T17:44:01.858Z,70.30
2023-01-28T17:46:13.283Z,70.69
2023-01-28T17:48:15.879Z,70.08
2023-01-28T17:50:18.563Z,70.08
2023-01-28T17:52:21.103Z,69.93
2023-01-28T17:54:24.761Z,70.45
2023-01-28T17:56:28.968Z,70.35
2023-01-28T17:58:31.582Z,70.57
2023-01-28T18:00:34.491Z,70.43
2023-01-28T18:02:38.449Z,70.66
2023-01-28T18:04:41.798Z,70.50
2023-01-28T18:06:44.771Z,70.35
2023-01-28T18:08:47.479Z,69.91
2023-01-28T18:10:50.056Z,70.30
2023-01-28T18:12:52.654Z,70.54
2023-01-28T18:14:55.232Z,70.04
2023-01-28T18:16:57.813Z,69.95
2023-01-28T18:19:01.776Z,69.90
2023-01-28T18:21:06.667Z,70.67
2023-01-28T18:23:09.399Z,70.32
2023-01-28T18:25:16.376Z,70.30
2023-01-28T18:27:20.869Z,70.15
2023-01-28T18:29:24.100Z,70.00
2023-01-28T18:31:26.784Z,70.84
2023-01-28T18:33:29.335Z,70.33
2023-01-28T18:35:33.261Z,70.26
2023-01-28T18:37:35.822Z,70.51
2023-01-28T18:39:39.783Z,70.93
2023-01-28T18:41:42.646Z,70.21
2023-01-28T18:43:45.228Z,70.91
2023-01-28T18:45:50.435Z,70.70
2023-01-28T18:47:53.015Z,70.39
2023-01-28T18:49:55.566Z,70.21
2023-01-28T18:51:59.539Z,70.23
2023-01-28T18:54:05.092Z,70.75
2023-01-28T18:56:09.165Z,70.62
2023-01-28T18:58:11.813Z,70.46
2023-01-28T19:00:15.325Z,70.88
2023-01-28T19:02:17.921Z,70.59
2023-01-28T19:04:20.933Z,70.35
2023-01-28T19:06:24.077Z,70.26
2023-01-28T19:08:28.914Z,70.43
2023-01-28T19:10:31.606Z,70.63
2023-01-28T19:12:34.187Z,71.13
2023-01-28T19:14:36.731Z,70.70
2023-01-28T19:16:39.979Z,70.15
2023-01-28T19:18:42.663Z,70.21
2023-01-28T19:20:45.969Z,70.04
2023-01-28T19:22:48.528Z,70.12
2023-01-28T19:24:54.556Z,70.10
2023-01-28T19:26:57.242Z,70.37
2023-01-28T19:29:00.216Z,70.51
2023-01-28T19:31:03.923Z,70.61
2023-01-28T19:33:07.475Z,70.31
2023-01-28T19:35:10.489Z,70.36
2023-01-28T19:37:13.389Z,69.99
2023-01-28T19:39:16.755Z,70.13
2023-01-28T19:41:20.662Z,69.73
2023-01-28T19:43:23.556Z,69.93
2023-01-28T19:45:26.130Z,70.14
2023-01-28T19:47:28.706Z,70.24
2023-01-28T19:49:31.504Z,70.02
2023-01-28T19:51:34.089Z,70.39
2023-01-28T19:53:37.440Z,70.50
2023-01-28T19:55:40.033Z,69.80
2023-01-28T19:57:44.698Z,70.13
2023-01-28T19:59:47.353Z,70.07
2023-01-28T20:01:49.959Z,69.79
2023-01-28T20:03:54.664Z,70.08
2023-01-28T20:06:00.902Z,70.07
2023-01-28T20:08:03.648Z,70.16
2023-01-28T20:10:07.034Z,70.04
2023-01-28T20:12:11.918Z,70.04
2023-01-28T20:14:16.146Z,70.26
2023-01-28T20:16:21.436Z,70.37
2023-01-28T20:18:24.023Z,70.55
2023-01-28T20:20:26.571Z,69.93
2023-01-28T20:22:29.199Z,70.01
2023-01-28T20:24:31.770Z,69.96
2023-01-28T20:26:37.311Z,70.06
2023-01-28T20:28:39.907Z,70.20
2023-01-28T20:30:43.930Z,70.04
2023-01-28T20:32:46.550Z,69.97
2023-01-28T20:34:49.161Z,70.54
2023-01-28T20:36:51.792Z,70.50
2023-01-28T20:38:54.694Z,70.62
2023-01-28T20:40:57.276Z,70.34
2023-01-28T20:43:00.246Z,70.27
2023-01-28T20:45:02.850Z,70.33
2023-01-28T20:47:07.166Z,70.36
2023-01-28T20:49:10.404Z,70.27
2023-01-28T20:51:15.297Z,70.96
2023-01-28T20:53:18.917Z,70.15
2023-01-28T20:55:21.482Z,70.72
2023-01-28T20:57:24.032Z,70.62
2023-01-28T20:59:27.495Z,70.52
2023-01-28T21:01:31.884Z,70.65
2023-01-28T21:03:35.826Z,70.52
2023-01-28T21:05:38.382Z,70.68
2023-01-28T21:07:40.941Z,70.74
2023-01-28T21:09:44.698Z,70.04
2023-01-28T21:11:47.259Z,70.28
2023-01-28T21:13:50.042Z,70.30
2023-01-28T21:15:54.814Z,70.28
2023-01-28T21:17:57.414Z,70.25
2023-01-28T21:20:01.348Z,70.54
2023-01-28T21:22:04.076Z,70.59
2023-01-28T21:24:07.825Z,70.78
2023-01-28T21:26:11.063Z,70.15
2023-01-28T21:28:14.538Z,70.27
2023-01-28T21:30:18.111Z,70.81
2023-01-28T21:32:25.529Z,70.60
2023-01-28T21:34:29.421Z,70.35
2023-01-28T21:36:34.359Z,70.31
2023-01-28T21:38:36.995Z,70.62
2023-01-28T21:40:39.898Z,70.74
2023-01-28T21:42:43.493Z,70.54
2023-01-28T21:44:47.070Z,70.17
2023-01-28T21:46:49.662Z,70.40
2023-01-28T21:48:55.132Z,69.96
2023-01-28T21:51:22.008Z,69.92
2023-01-28T21:53:25.943Z,70.09
2023-01-28T21:55:28.444Z,70.09
2023-01-28T21:57:31.017Z,69.78
2023-01-28T21:59:32.688Z,70.57
2023-01-28T22:01:35.188Z,70.08
2023-01-28T22:03:37.785Z,70.57
2023-01-28T22:05:40.329Z,70.03
2023-01-28T22:07:42.904Z,69.89
2023-01-28T22:09:48.546Z,70.33
2023-01-28T22:11:51.204Z,69.95
2023-01-28T22:13:53.869Z,70.14
2023-01-28T22:15:56.430Z,70.12
2023-01-28T22:17:59.006Z,70.15
2023-01-28T22:20:01.614Z,70.13
2023-01-28T22:22:04.745Z,70.41
2023-01-28T22:24:11.891Z,70.33
2023-01-28T22:26:15.796Z,70.24
2023-01-28T22:28:18.384Z,69.85
2023-01-28T22:30:21.048Z,69.77
2023-01-28T22:32:23.665Z,70.01
2023-01-28T22:34:27.257Z,69.75
2023-01-28T22:36:30.038Z,69.74
2023-01-28T22:38:32.736Z,70.01
2023-01-28T22:40:35.765Z,69.54
2023-01-28T22:42:39.716Z,69.43
2023-01-28T22:44:42.282Z,69.50
2023-01-28T22:46:44.894Z,70.10
2023-01-28T22:48:48.189Z,69.70
2023-01-28T22:50:50.738Z,69.38
2023-01-28T22:52:53.288Z,70.11
2023-01-28T22:54:55.867Z,70.12
2023-01-28T22:56:58.453Z,69.63
2023-01-28T22:59:03.828Z,69.68
2023-01-28T23:01:07.254Z,69.34
2023-01-28T23:03:10.146Z,69.97
2023-01-28T23:05:12.774Z,69.78
2023-01-28T23:07:15.370Z,69.60
2023-01-28T23:09:17.972Z,69.56
2023-01-28T23:11:27.201Z,69.32
2023-01-28T23:13:50.849Z,69.38
2023-01-28T23:16:12.729Z,69.27
2023-01-28T23:18:36.898Z,69.31
2023-01-28T23:21:05.985Z,69.47
2023-01-28T23:23:33.380Z,69.42
2023-01-28T23:25:36.143Z,68.90
2023-01-28T23:27:39.600Z,69.60
2023-01-28T23:29:42.284Z,69.51
2023-01-28T23:31:48.628Z,69.50
2023-01-28T23:33:51.278Z,69.77
2023-01-28T23:35:53.832Z,69.23
2023-01-28T23:37:56.533Z,69.92
2023-01-28T23:39:59.831Z,69.56
2023-01-28T23:42:10.429Z,69.53
2023-01-28T23:44:13.009Z,69.03
2023-01-28T23:46:15.621Z,69.29
2023-01-28T23:48:19.574Z,69.75
2023-01-28T23:50:22.779Z,69.79
2023-01-28T23:52:26.654Z,69.19
2023-01-28T23:54:29.245Z,69.02
2023-01-28T23:56:31.790Z,68.78
2023-01-28T23:58:43.411Z,69.47
